Time;durP1;ratioP1;P1;durP2;ratioP2;P2;SDS_P1;SDS_P2;PMS_P1;PMS_P2;Temp;Humidity;BMP_temperature;BMP_pressure;BME280_temperature;BME280_humidity;BME280_pressure;Samples;Min_cycle;Max_cycle;Signal;HPM_P1;HPM_P2
2022/12/09 00:02:03;;;;;;;38.97;19.70;;;;;;;8.86;100.00;99454.50;5109473;28;20201;-58
2022/12/09 00:04:30;;;;;;;35.03;18.10;;;;;;;8.86;100.00;99451.94;5109652;28;20589;-59
2022/12/09 00:06:56;;;;;;;37.93;18.87;;;;;;;8.80;100.00;99447.75;5109660;28;20591;-59
2022/12/09 00:09:23;;;;;;;40.33;18.77;;;;;;;8.81;100.00;99436.50;5109786;28;20193;-58
2022/12/09 00:11:51;;;;;;;38.77;17.53;;;;;;;8.80;100.00;99444.31;5109584;28;20205;-59
2022/12/09 00:14:18;;;;;;;37.33;16.87;;;;;;;8.94;100.00;99444.81;5109582;28;20578;-58
2022/12/09 00:16:45;;;;;;;34.37;18.20;;;;;;;8.92;100.00;99444.00;5109571;28;20221;-59
2022/12/09 00:19:14;;;;;;;35.43;17.83;;;;;;;8.76;100.00;99440.09;5109556;28;20214;-58
2022/12/09 00:21:41;;;;;;;39.53;18.20;;;;;;;8.72;100.00;99436.72;5109191;28;20345;-58
2022/12/09 00:24:12;;;;;;;40.33;18.30;;;;;;;8.74;100.00;99442.69;5109586;28;20648;-58
2022/12/09 00:26:40;;;;;;;38.17;18.40;;;;;;;8.79;100.00;99440.03;5109868;28;20599;-58
2022/12/09 00:29:07;;;;;;;39.13;18.23;;;;;;;8.70;100.00;99449.66;5109798;28;20194;-67
2022/12/09 00:31:36;;;;;;;33.00;16.70;;;;;;;8.72;100.00;99450.50;5113327;28;20205;-66
2022/12/09 00:34:05;;;;;;;39.30;17.93;;;;;;;8.62;100.00;99456.75;5113192;27;20311;-66
2022/12/09 00:36:33;;;;;;;35.90;18.40;;;;;;;8.68;100.00;99461.81;5113527;28;20205;-65
2022/12/09 00:39:01;;;;;;;35.00;17.13;;;;;;;8.79;100.00;99458.13;5113366;28;20218;-66
2022/12/09 00:41:28;;;;;;;33.87;17.47;;;;;;;8.70;100.00;99443.66;5113431;28;20194;-66
2022/12/09 00:43:55;;;;;;;39.23;18.50;;;;;;;8.78;100.00;99464.19;5113287;28;20681;-66
2022/12/09 00:46:22;;;;;;;39.87;18.20;;;;;;;8.78;100.00;99453.84;5112999;28;20195;-66
2022/12/09 00:48:49;;;;;;;34.27;16.57;;;;;;;8.79;100.00;99456.41;5113179;27;20205;-64
2022/12/09 00:51:18;;;;;;;40.00;18.83;;;;;;;8.79;100.00;99456.41;5112976;28;20194;-65
2022/12/09 00:53:47;;;;;;;40.77;18.60;;;;;;;8.87;100.00;99451.91;5113237;27;20240;-65
2022/12/09 00:56:14;;;;;;;39.80;17.50;;;;;;;8.70;100.00;99433.28;5112527;28;20203;-65
2022/12/09 00:58:41;;;;;;;39.27;17.80;;;;;;;8.86;100.00;99445.00;5113034;28;20222;-64
2022/12/09 01:01:08;;;;;;;37.67;17.80;;;;;;;8.85;100.00;99437.28;5112749;28;20190;-65
2022/12/09 01:03:35;;;;;;;38.63;17.60;;;;;;;8.91;100.00;99438.00;5112877;28;20194;-66
2022/12/09 01:06:08;;;;;;;37.70;18.03;;;;;;;8.97;100.00;99437.00;5113158;27;20205;-65
2022/12/09 01:08:34;;;;;;;37.90;16.67;;;;;;;9.01;100.00;99439.50;5112724;28;20203;-65
2022/12/09 01:11:08;;;;;;;40.03;17.30;;;;;;;8.90;100.00;99432.88;5112711;28;20195;-66
2022/12/09 01:13:35;;;;;;;36.63;16.63;;;;;;;8.91;100.00;99440.59;5101386;28;20195;-66
2022/12/09 01:16:02;;;;;;;35.77;17.13;;;;;;;8.83;100.00;99439.03;5092423;28;20198;-59
2022/12/09 01:18:29;;;;;;;36.10;16.50;;;;;;;8.87;100.00;99440.69;5092346;28;20253;-58
2022/12/09 01:20:57;;;;;;;35.20;17.13;;;;;;;8.95;100.00;99444.78;5092118;28;20222;-65
2022/12/09 01:23:24;;;;;;;31.90;16.97;;;;;;;8.92;100.00;99456.94;5092046;28;20207;-66
2022/12/09 01:25:51;;;;;;;33.10;16.93;;;;;;;8.98;100.00;99443.88;5091808;28;20195;-66
2022/12/09 01:28:19;;;;;;;33.40;16.50;;;;;;;8.80;100.00;99439.13;5091633;28;20663;-64
2022/12/09 01:30:46;;;;;;;29.70;16.00;;;;;;;8.89;100.00;99449.28;5092183;28;20306;-60
2022/12/09 01:33:13;;;;;;;31.43;16.23;;;;;;;8.85;100.00;99440.72;5091894;28;20203;-59
2022/12/09 01:35:40;;;;;;;31.00;15.37;;;;;;;8.89;100.00;99434.59;5091936;28;20206;-59
2022/12/09 01:38:07;;;;;;;30.47;15.70;;;;;;;8.88;100.00;99432.88;5091622;28;20226;-59
2022/12/09 01:40:34;;;;;;;33.17;17.23;;;;;;;8.74;100.00;99415.09;5091090;28;20205;-59
2022/12/09 01:43:01;;;;;;;29.43;16.10;;;;;;;8.85;100.00;99432.97;5091229;28;20203;-59
2022/12/09 01:45:40;;;;;;;29.57;13.97;;;;;;;8.96;100.00;99441.31;5091587;28;20195;-59
2022/12/09 01:48:12;;;;;;;30.10;15.03;;;;;;;8.99;100.00;99427.47;5091809;28;20681;-59
2022/12/09 01:50:43;;;;;;;27.43;14.80;;;;;;;8.96;100.00;99424.94;5091775;28;20273;-66
2022/12/09 01:53:13;;;;;;;29.03;14.50;;;;;;;8.94;100.00;99435.31;5091329;28;20290;-65
2022/12/09 01:55:40;;;;;;;24.07;13.47;;;;;;;9.02;100.00;99427.41;5091716;28;20221;-59
2022/12/09 01:58:08;;;;;;;23.23;13.50;;;;;;;9.04;100.00;99425.59;5091593;28;20219;-65
2022/12/09 02:00:36;;;;;;;21.80;12.90;;;;;;;9.02;100.00;99437.75;5091699;28;20202;-65
2022/12/09 02:03:03;;;;;;;23.43;13.83;;;;;;;9.04;100.00;99446.31;5091315;28;20214;-66
2022/12/09 02:05:31;;;;;;;21.10;12.77;;;;;;;9.08;100.00;99432.41;5091065;28;20201;-66
2022/12/09 02:07:58;;;;;;;21.57;14.27;;;;;;;9.01;100.00;99436.03;5091080;28;20202;-65
2022/12/09 02:10:26;;;;;;;23.67;13.63;;;;;;;8.99;100.00;99425.72;5091080;28;20199;-66
2022/12/09 02:13:04;;;;;;;25.77;13.57;;;;;;;9.07;100.00;99421.19;5091451;28;20199;-66
2022/12/09 02:15:39;;;;;;;23.23;13.70;;;;;;;9.15;100.00;99410.66;5091027;28;20206;-65
2022/12/09 02:18:13;;;;;;;26.20;14.13;;;;;;;9.23;100.00;99420.84;5090851;28;20600;-59
2022/12/09 02:20:45;;;;;;;22.03;12.60;;;;;;;9.23;100.00;99419.09;5091035;28;20230;-59
2022/12/09 02:23:18;;;;;;;20.00;12.73;;;;;;;9.20;100.00;99418.31;5091176;28;20659;-58
2022/12/09 02:25:48;;;;;;;23.07;12.20;;;;;;;9.19;100.00;99422.66;5091031;28;20580;-59
2022/12/09 02:28:44;;;;;;;24.20;13.20;;;;;;;9.22;100.00;99411.38;5091000;28;20195;-58
2022/12/09 02:31:23;;;;;;;20.93;12.83;;;;;;;9.18;100.00;99413.19;5090873;28;20196;-59
2022/12/09 02:34:10;;;;;;;21.17;12.07;;;;;;;9.19;100.00;99411.44;5090859;28;20613;-65
2022/12/09 02:36:44;;;;;;;18.23;11.30;;;;;;;9.17;100.00;99419.25;5091015;28;20199;-65
2022/12/09 02:39:11;;;;;;;21.70;12.53;;;;;;;9.10;100.00;99428.06;5090475;28;20231;-65
2022/12/09 02:41:44;;;;;;;21.30;12.37;;;;;;;9.10;100.00;99428.91;5091126;28;20574;-66
2022/12/09 02:44:16;;;;;;;19.00;11.67;;;;;;;9.09;100.00;99421.16;5090769;28;20663;-66
2022/12/09 02:46:44;;;;;;;30.10;14.73;;;;;;;9.15;100.00;99414.97;5090449;28;20202;-66
2022/12/09 02:49:14;;;;;;;32.43;18.47;;;;;;;9.22;100.00;99409.63;5094780;28;20212;-66
2022/12/09 02:51:43;;;;;;;26.13;13.77;;;;;;;9.22;100.00;99412.22;5110898;28;20675;-59
2022/12/09 02:54:13;;;;;;;24.23;13.70;;;;;;;9.21;100.00;99410.50;5110801;28;20202;-65
2022/12/09 02:56:44;;;;;;;21.13;12.30;;;;;;;9.21;100.00;99414.84;5111065;27;20609;-65
2022/12/09 02:59:11;;;;;;;20.03;12.20;;;;;;;9.19;100.00;99416.63;5110692;28;20279;-59
2022/12/09 03:01:43;;;;;;;19.27;12.97;;;;;;;9.21;100.00;99412.25;5110791;28;20285;-58
2022/12/09 03:04:17;;;;;;;22.27;11.60;;;;;;;9.23;100.00;99424.28;5110480;28;20307;-58
2022/12/09 03:06:50;;;;;;;27.47;13.00;;;;;;;9.11;100.00;99424.59;5110220;28;20202;-60
2022/12/09 03:09:24;;;;;;;24.27;12.43;;;;;;;9.19;100.00;99422.66;5110303;28;20201;-59
2022/12/09 03:11:53;;;;;;;20.67;11.63;;;;;;;9.20;100.00;99424.34;5110435;28;20204;-59
2022/12/09 03:14:25;;;;;;;23.40;12.10;;;;;;;9.18;100.00;99441.66;5110142;28;20202;-59
2022/12/09 03:16:59;;;;;;;22.67;12.17;;;;;;;9.21;100.00;99431.22;5110533;28;20682;-58
2022/12/09 03:19:32;;;;;;;22.27;12.80;;;;;;;9.10;100.00;99428.06;5110094;28;20222;-63
2022/12/09 03:22:03;;;;;;;23.73;12.67;;;;;;;9.16;100.00;99421.88;5110359;28;20194;-66
2022/12/09 03:24:38;;;;;;;22.83;12.30;;;;;;;9.16;100.00;99427.03;5110283;28;20604;-66
2022/12/09 03:27:09;;;;;;;24.53;13.23;;;;;;;9.21;100.00;99427.78;5109899;28;20217;-65
2022/12/09 03:29:40;;;;;;;21.57;12.67;;;;;;;9.21;100.00;99446.78;5110153;28;20197;-65
2022/12/09 03:32:09;;;;;;;20.50;12.23;;;;;;;9.25;100.00;99460.50;5109982;28;20194;-58
2022/12/09 03:34:41;;;;;;;25.17;13.13;;;;;;;9.16;100.00;99443.44;5110076;28;20199;-59
2022/12/09 03:37:09;;;;;;;21.40;12.73;;;;;;;9.19;100.00;99453.72;5109978;28;20190;-58
2022/12/09 03:39:38;;;;;;;22.53;13.33;;;;;;;9.13;100.00;99453.88;5109849;28;20226;-59
2022/12/09 03:42:11;;;;;;;22.57;13.57;;;;;;;9.21;100.00;99445.91;5109887;28;20202;-59
2022/12/09 03:44:42;;;;;;;28.00;13.60;;;;;;;9.17;100.00;99455.50;5109930;28;20194;-65
2022/12/09 03:47:10;;;;;;;21.80;12.07;;;;;;;8.97;100.00;99452.53;5109861;28;20209;-65
2022/12/09 03:49:39;;;;;;;26.40;13.10;;;;;;;9.01;100.00;99451.59;5109983;28;20194;-65
2022/12/09 03:52:13;;;;;;;23.40;12.00;;;;;;;9.06;100.00;99449.72;5109468;28;20206;-65
2022/12/09 03:54:44;;;;;;;22.93;12.90;;;;;;;9.13;100.00;99459.06;5109815;28;20204;-66
2022/12/09 03:57:13;;;;;;;21.30;12.30;;;;;;;9.08;100.00;99443.63;5109698;28;20874;-65
2022/12/09 03:59:42;;;;;;;20.63;11.87;;;;;;;9.13;100.00;99451.28;5109746;28;20214;-65
2022/12/09 04:02:09;;;;;;;22.07;12.30;;;;;;;9.18;100.00;99441.66;5109621;28;20662;-65
2022/12/09 04:04:41;;;;;;;23.20;12.40;;;;;;;9.23;100.00;99450.19;5110884;28;20194;-66
2022/12/09 04:07:09;;;;;;;24.90;13.07;;;;;;;9.13;100.00;99448.69;5113650;28;20225;-66
2022/12/09 04:09:36;;;;;;;21.03;11.47;;;;;;;9.19;100.00;99445.09;5113819;28;20190;-58
2022/12/09 04:12:03;;;;;;;20.23;12.60;;;;;;;9.17;100.00;99454.63;5113891;28;20194;-58
2022/12/09 04:14:30;;;;;;;26.03;12.97;;;;;;;9.17;100.00;99455.50;5113753;28;20209;-58
2022/12/09 04:16:57;;;;;;;23.20;12.40;;;;;;;9.12;100.00;99449.59;5113605;28;20199;-58
2022/12/09 04:19:24;;;;;;;24.07;12.37;;;;;;;9.10;100.00;99447.03;5114029;28;20222;-58
2022/12/09 04:21:52;;;;;;;19.87;12.27;;;;;;;9.04;100.00;99435.94;5113900;28;20195;-59
2022/12/09 04:24:19;;;;;;;28.03;13.70;;;;;;;9.06;100.00;99437.63;5113652;28;20190;-59
2022/12/09 04:26:46;;;;;;;25.10;12.57;;;;;;;8.93;100.00;99432.75;5113960;28;20592;-59
2022/12/09 04:29:13;;;;;;;23.43;12.67;;;;;;;8.97;100.00;99434.41;5113465;28;20190;-58
2022/12/09 04:31:40;;;;;;;22.57;12.17;;;;;;;8.93;100.00;99425.84;5113508;27;20289;-58
2022/12/09 04:34:07;;;;;;;22.73;12.97;;;;;;;9.01;100.00;99433.47;5113393;27;20202;-58
2022/12/09 04:36:34;;;;;;;23.77;12.00;;;;;;;8.88;100.00;99432.03;5106598;28;20314;-59
2022/12/09 04:39:02;;;;;;;25.50;13.00;;;;;;;8.87;100.00;99427.75;5105824;28;20214;-59
2022/12/09 04:41:29;;;;;;;21.97;12.57;;;;;;;8.91;100.00;99427.66;5113305;27;20203;-58
2022/12/09 04:43:56;;;;;;;22.10;12.20;;;;;;;8.98;100.00;99428.34;5113068;28;20202;-58
2022/12/09 04:46:23;;;;;;;26.47;13.70;;;;;;;8.82;100.00;99427.00;5113064;28;20202;-65
2022/12/09 04:48:50;;;;;;;26.67;13.63;;;;;;;8.88;100.00;99430.31;5113284;28;20199;-62
2022/12/09 04:51:17;;;;;;;23.77;13.87;;;;;;;8.97;100.00;99427.50;5112813;28;20202;-63
2022/12/09 04:53:44;;;;;;;24.07;14.03;;;;;;;8.97;100.00;99411.97;5109853;28;20204;-63
2022/12/09 04:56:14;;;;;;;24.73;12.67;;;;;;;9.05;100.00;99422.13;5111843;28;20309;-62
2022/12/09 04:58:43;;;;;;;24.50;12.97;;;;;;;9.08;100.00;99430.69;5107152;28;20209;-63
2022/12/09 05:01:17;;;;;;;26.23;12.97;;;;;;;9.13;100.00;99438.34;5109510;28;20205;-62
2022/12/09 05:03:44;;;;;;;30.27;13.70;;;;;;;9.13;100.00;99437.50;5112502;28;20191;-62
2022/12/09 05:06:12;;;;;;;25.13;13.37;;;;;;;9.12;100.00;99444.41;5116221;27;20215;-63
2022/12/09 05:08:40;;;;;;;22.50;12.63;;;;;;;9.09;100.00;99445.31;5117947;27;20646;-63
2022/12/09 05:11:07;;;;;;;24.97;13.63;;;;;;;9.12;100.00;99446.16;5111234;27;20246;-62
2022/12/09 05:13:36;;;;;;;26.77;13.47;;;;;;;9.19;100.00;99448.53;5091882;28;20242;-61
2022/12/09 05:16:04;;;;;;;28.23;14.80;;;;;;;9.09;100.00;99449.66;5091703;28;20223;-63
2022/12/09 05:18:32;;;;;;;27.47;14.60;;;;;;;9.01;100.00;99455.03;5091241;28;20724;-62
2022/12/09 05:20:59;;;;;;;25.13;14.67;;;;;;;8.91;100.00;99457.88;5111653;28;20325;-61
2022/12/09 05:23:26;;;;;;;30.73;15.57;;;;;;;8.83;100.00;99458.00;5112021;28;20223;-63
2022/12/09 05:25:55;;;;;;;33.23;16.00;;;;;;;8.80;100.00;99454.66;5111514;28;20230;-60
2022/12/09 05:28:22;;;;;;;28.57;16.23;;;;;;;8.85;100.00;99457.97;5112202;28;20686;-62
2022/12/09 05:30:50;;;;;;;29.97;15.57;;;;;;;8.93;100.00;99445.72;5111792;28;20190;-62
2022/12/09 05:33:17;;;;;;;30.17;16.43;;;;;;;9.02;100.00;99445.53;5112315;28;20715;-62
2022/12/09 05:35:44;;;;;;;30.13;16.07;;;;;;;9.03;100.00;99453.22;5112322;28;20666;-62
2022/12/09 05:38:11;;;;;;;30.03;16.50;;;;;;;9.05;100.00;99448.88;5111584;28;20198;-62
2022/12/09 05:40:38;;;;;;;29.33;16.23;;;;;;;8.89;100.00;99449.28;5111713;28;20215;-61
2022/12/09 05:43:05;;;;;;;32.17;17.30;;;;;;;8.67;100.00;99452.34;5111660;28;20205;-57
2022/12/09 05:45:31;;;;;;;36.27;21.20;;;;;;;8.74;100.00;99456.50;5111644;28;20242;-57
2022/12/09 05:48:00;;;;;;;47.97;27.97;;;;;;;8.84;100.00;99456.28;5111698;28;20220;-57
2022/12/09 05:50:27;;;;;;;33.63;19.07;;;;;;;8.95;100.00;99454.28;5111987;28;20194;-57
2022/12/09 05:52:54;;;;;;;35.53;18.30;;;;;;;8.82;100.00;99447.69;5111826;28;20194;-57
2022/12/09 05:55:20;;;;;;;32.20;17.93;;;;;;;8.83;100.00;99452.84;5111867;27;20225;-56
2022/12/09 05:57:47;;;;;;;30.93;16.13;;;;;;;8.90;100.00;99458.75;5111964;28;20214;-57
2022/12/09 06:00:15;;;;;;;30.10;17.20;;;;;;;8.84;100.00;99458.88;5111604;27;20226;-57
2022/12/09 06:02:42;;;;;;;34.43;17.60;;;;;;;8.86;100.00;99463.13;5111840;27;20199;-56
2022/12/09 06:05:10;;;;;;;35.20;19.23;;;;;;;8.88;100.00;99457.91;5111539;28;20201;-56
2022/12/09 06:07:37;;;;;;;37.27;18.20;;;;;;;8.95;100.00;99469.81;5111821;28;20454;-56
2022/12/09 06:10:05;;;;;;;32.10;18.93;;;;;;;8.93;100.00;99456.91;5111093;28;20591;-56
2022/12/09 06:12:32;;;;;;;39.07;18.93;;;;;;;8.87;100.00;99477.78;5111438;27;20674;-56
2022/12/09 06:14:59;;;;;;;32.73;18.70;;;;;;;8.88;100.00;99488.97;5109167;28;20206;-62
2022/12/09 06:17:26;;;;;;;34.37;18.20;;;;;;;8.83;100.00;99477.88;5091340;27;20215;-62
2022/12/09 06:19:53;;;;;;;37.53;18.70;;;;;;;8.85;100.00;99474.38;5090613;28;20242;-56
2022/12/09 06:22:21;;;;;;;37.60;19.07;;;;;;;8.89;100.00;99485.50;5089501;28;20219;-57
2022/12/09 06:24:48;;;;;;;35.27;19.70;;;;;;;8.87;100.00;99500.22;5097395;28;20709;-56
2022/12/09 06:27:16;;;;;;;36.97;18.27;;;;;;;8.85;100.00;99502.84;5109325;27;20219;-57
2022/12/09 06:29:42;;;;;;;34.77;19.23;;;;;;;8.92;100.00;99495.78;5110594;28;20808;-57
2022/12/09 06:32:09;;;;;;;44.73;19.30;;;;;;;9.01;100.00;99498.19;5107375;28;20237;-56
2022/12/09 06:34:36;;;;;;;32.47;18.03;;;;;;;9.03;100.00;99499.81;5110224;27;20229;-64
2022/12/09 06:37:03;;;;;;;29.27;17.87;;;;;;;8.98;100.00;99495.66;5109400;28;20218;-62
2022/12/09 06:39:32;;;;;;;32.10;18.57;;;;;;;8.96;100.00;99500.00;5109788;28;20625;-62
2022/12/09 06:41:58;;;;;;;34.77;19.53;;;;;;;8.90;100.00;99503.59;5109701;27;20198;-61
2022/12/09 06:44:25;;;;;;;32.10;17.60;;;;;;;8.99;100.00;99505.97;5110780;28;20205;-62
2022/12/09 06:46:52;;;;;;;30.60;17.53;;;;;;;8.99;100.00;99507.72;5111004;28;20892;-62
2022/12/09 06:49:19;;;;;;;34.83;18.13;;;;;;;9.11;100.00;99499.66;5110542;28;20195;-61
2022/12/09 06:51:46;;;;;;;32.20;16.63;;;;;;;9.08;100.00;99502.31;5110791;28;20199;-62
2022/12/09 06:54:13;;;;;;;38.03;19.27;;;;;;;9.09;100.00;99498.84;5110564;28;20199;-61
2022/12/09 06:56:41;;;;;;;33.33;17.77;;;;;;;9.02;100.00;99505.06;5110741;28;20618;-61
2022/12/09 06:59:09;;;;;;;40.63;18.30;;;;;;;9.07;100.00;99508.38;5110431;28;20243;-62
2022/12/09 07:01:38;;;;;;;38.77;17.03;;;;;;;9.06;100.00;99510.13;5110470;28;20688;-63
2022/12/09 07:04:06;;;;;;;36.40;17.40;;;;;;;9.05;100.00;99508.41;5110036;28;20297;-62
2022/12/09 07:06:35;;;;;;;34.53;15.90;;;;;;;9.10;100.00;99510.91;5110673;28;20191;-56
2022/12/09 07:09:05;;;;;;;26.83;14.57;;;;;;;9.03;100.00;99505.00;5110497;28;20205;-56
2022/12/09 07:11:32;;;;;;;34.97;16.63;;;;;;;9.13;100.00;99505.66;5110369;28;20221;-56
2022/12/09 07:14:00;;;;;;;30.90;15.80;;;;;;;9.27;100.00;99505.31;5104465;27;20218;-57
2022/12/09 07:16:28;;;;;;;27.00;14.67;;;;;;;9.25;100.00;99491.59;5109540;28;20198;-57
2022/12/09 07:18:55;;;;;;;33.37;14.83;;;;;;;9.16;100.00;99508.16;5108527;28;20195;-56
2022/12/09 07:21:23;;;;;;;29.40;14.30;;;;;;;9.15;100.00;99505.59;5107994;28;20222;-56
2022/12/09 07:23:50;;;;;;;34.10;15.90;;;;;;;9.11;100.00;99512.63;5103366;28;20229;-55
2022/12/09 07:26:18;;;;;;;43.37;23.23;;;;;;;9.22;100.00;99499.41;5107495;28;20227;-56
2022/12/09 07:28:46;;;;;;;35.90;16.70;;;;;;;9.25;100.00;99500.22;5109002;28;20614;-55
2022/12/09 07:31:25;;;;;;;30.70;17.60;;;;;;;9.22;100.00;99497.69;5109720;28;20199;-57
2022/12/09 07:33:54;;;;;;;28.53;14.13;;;;;;;9.15;100.00;99490.91;5109682;28;20297;-56
2022/12/09 07:36:22;;;;;;;23.70;13.63;;;;;;;9.30;100.00;99497.50;5099066;28;20226;-61
2022/12/09 07:38:54;;;;;;;26.27;13.90;;;;;;;9.41;100.00;99490.31;5108619;28;20233;-61
2022/12/09 07:41:21;;;;;;;27.33;13.73;;;;;;;9.43;100.00;99504.06;5108314;28;20228;-61
2022/12/09 07:43:48;;;;;;;28.30;14.53;;;;;;;9.28;100.00;99501.84;5108502;27;20219;-61
2022/12/09 07:46:17;;;;;;;25.23;12.90;;;;;;;9.33;100.00;99502.59;5108132;28;20222;-62
2022/12/09 07:48:46;;;;;;;27.47;13.07;;;;;;;9.24;100.00;99501.09;5108219;28;20199;-63
2022/12/09 07:51:13;;;;;;;26.90;13.53;;;;;;;9.28;100.00;99505.28;5108863;28;20277;-62
2022/12/09 07:53:40;;;;;;;23.50;12.70;;;;;;;9.37;100.00;99501.63;5109729;28;20209;-61
2022/12/09 07:56:10;;;;;;;25.93;12.37;;;;;;;9.46;100.00;99504.88;5109835;28;20198;-55
2022/12/09 07:58:37;;;;;;;26.33;13.43;;;;;;;9.52;100.00;99515.94;5109822;28;20580;-61
2022/12/09 08:01:08;;;;;;;25.53;12.73;;;;;;;9.60;100.00;99495.88;5109471;28;20222;-62
2022/12/09 08:03:35;;;;;;;33.40;13.77;;;;;;;9.57;100.00;99501.16;5109753;28;20198;-62
2022/12/09 08:06:04;;;;;;;29.70;14.03;;;;;;;9.53;100.00;99513.31;5109506;28;20195;-60
2022/12/09 08:08:32;;;;;;;36.07;18.67;;;;;;;9.63;100.00;99516.53;5109762;28;20696;-62
2022/12/09 08:11:07;;;;;;;31.00;16.43;;;;;;;9.50;100.00;99515.13;5110099;28;20226;-62
2022/12/09 08:13:34;;;;;;;38.70;17.57;;;;;;;9.61;100.00;99518.31;5109668;28;20225;-61
2022/12/09 08:16:02;;;;;;;34.97;17.10;;;;;;;9.43;100.00;99463.47;5103703;28;20195;-63
2022/12/09 08:18:29;;;;;;;34.40;19.83;;;;;;;9.66;100.00;99500.91;5089538;28;20195;-62
2022/12/09 08:20:56;;;;;;;29.53;16.63;;;;;;;9.58;100.00;99513.22;5088939;28;20231;-61
2022/12/09 08:23:24;;;;;;;33.20;15.83;;;;;;;9.53;100.00;99521.09;5089257;28;20199;-62
2022/12/09 08:26:00;;;;;;;26.87;14.73;;;;;;;9.48;100.00;99528.97;5089634;28;20191;-62
2022/12/09 08:28:27;;;;;;;36.63;14.80;;;;;;;9.35;100.00;99525.00;5089050;28;20191;-61
2022/12/09 08:30:54;;;;;;;26.27;14.57;;;;;;;9.37;100.00;99522.34;5089225;28;20205;-61
2022/12/09 08:33:21;;;;;;;32.77;14.87;;;;;;;9.34;100.00;99509.50;5088985;28;20685;-61
2022/12/09 08:35:48;;;;;;;27.30;14.33;;;;;;;9.48;100.00;99497.88;5089423;28;20202;-61
2022/12/09 08:38:14;;;;;;;37.40;15.40;;;;;;;9.37;100.00;99488.66;5089267;28;20230;-60
2022/12/09 08:40:43;;;;;;;25.57;13.60;;;;;;;9.38;100.00;99493.81;5089090;28;20226;-61
2022/12/09 08:43:10;;;;;;;27.30;14.20;;;;;;;9.36;100.00;99498.22;5088924;28;20211;-61
2022/12/09 08:45:38;;;;;;;31.20;15.77;;;;;;;9.46;100.00;99504.00;5089170;28;20195;-62
2022/12/09 08:48:05;;;;;;;26.93;14.47;;;;;;;9.47;100.00;99505.72;5088930;28;20200;-62
2022/12/09 08:50:33;;;;;;;37.73;17.03;;;;;;;9.55;100.00;99497.75;5090340;28;20194;-60
2022/12/09 08:53:00;;;;;;;32.20;17.60;;;;;;;9.59;100.00;99491.59;5092987;28;20204;-62
2022/12/09 08:55:27;;;;;;;32.23;17.70;;;;;;;9.62;100.00;99486.31;5092550;28;20199;-61
2022/12/09 08:57:57;;;;;;;34.20;18.17;;;;;;;9.74;100.00;99504.16;5092828;28;20686;-61
2022/12/09 09:00:25;;;;;;;39.73;19.50;;;;;;;9.71;100.00;99499.91;5093167;28;20221;-62
2022/12/09 09:02:52;;;;;;;44.63;22.20;;;;;;;9.68;100.00;99488.78;5093263;28;20199;-61
2022/12/09 09:05:19;;;;;;;35.47;19.70;;;;;;;9.76;100.00;99497.19;5092458;28;20195;-62
2022/12/09 09:07:46;;;;;;;37.33;19.47;;;;;;;9.71;100.00;99488.69;5092663;28;20581;-57
2022/12/09 09:10:12;;;;;;;36.67;18.60;;;;;;;9.60;100.00;99485.50;5092393;28;20546;-62
2022/12/09 09:12:39;;;;;;;34.30;18.00;;;;;;;9.55;100.00;99487.38;5092400;28;20210;-56
2022/12/09 09:15:09;;;;;;;31.57;18.20;;;;;;;9.53;100.00;99474.47;5092224;28;20195;-61
2022/12/09 09:17:36;;;;;;;34.37;18.87;;;;;;;9.63;100.00;99473.34;5092606;28;20687;-61
2022/12/09 09:20:03;;;;;;;39.50;19.60;;;;;;;9.69;100.00;99460.25;5092428;28;20616;-62
2022/12/09 09:22:29;;;;;;;38.10;20.07;;;;;;;9.71;100.00;99457.56;5091478;27;20230;-54
2022/12/09 09:24:56;;;;;;;37.27;20.00;;;;;;;9.57;100.00;99433.78;5091874;28;20215;-56
2022/12/09 09:27:23;;;;;;;39.77;19.57;;;;;;;9.55;100.00;99446.78;5091172;28;20218;-56
2022/12/09 09:29:50;;;;;;;43.43;21.27;;;;;;;9.66;100.00;99446.50;5091495;28;20598;-56
2022/12/09 09:32:18;;;;;;;40.17;22.10;;;;;;;9.68;100.00;99442.13;5091522;28;20225;-56
2022/12/09 09:34:47;;;;;;;40.13;19.83;;;;;;;9.62;100.00;99448.31;5091147;28;20687;-54
2022/12/09 09:37:14;;;;;;;36.17;19.27;;;;;;;9.58;100.00;99445.84;5107867;28;20283;-56
2022/12/09 09:39:41;;;;;;;41.17;20.33;;;;;;;9.55;100.00;99439.00;5110578;28;20199;-56
2022/12/09 09:42:26;;;;;;;36.87;20.97;;;;;;;9.56;100.00;99432.09;5111578;28;20258;-56
2022/12/09 09:44:54;;;;;;;40.33;20.40;;;;;;;9.60;100.00;99429.34;5112153;28;20198;-55
2022/12/09 09:47:30;;;;;;;37.53;20.23;;;;;;;9.66;100.00;99428.34;5112107;28;20588;-55
2022/12/09 09:50:00;;;;;;;38.83;20.50;;;;;;;9.73;100.00;99437.66;5111989;28;20205;-55
2022/12/09 09:52:29;;;;;;;36.47;19.27;;;;;;;9.83;100.00;99433.94;5111924;28;20583;-60
2022/12/09 09:54:57;;;;;;;34.67;20.77;;;;;;;9.97;100.00;99434.41;5111936;28;20190;-60
2022/12/09 09:57:28;;;;;;;38.03;21.53;;;;;;;9.93;100.00;99437.97;5111736;28;20289;-60
2022/12/09 10:00:05;;;;;;;39.60;20.70;;;;;;;9.94;100.00;99424.13;5111938;28;20305;-61
2022/12/09 10:02:47;;;;;;;40.37;21.57;;;;;;;9.93;100.00;99424.19;5110851;28;20254;-61
2022/12/09 10:05:22;;;;;;;36.43;20.77;;;;;;;9.93;100.00;99419.00;5111814;28;20224;-56
2022/12/09 10:07:52;;;;;;;44.43;22.10;;;;;;;10.01;100.00;99409.25;5111977;27;20588;-61
2022/12/09 10:10:30;;;;;;;31.77;20.60;;;;;;;10.12;100.00;99408.06;5111423;28;20193;-60
2022/12/09 10:13:14;;;;;;;41.20;22.30;;;;;;;10.17;100.00;99403.56;5111646;28;20204;-61
2022/12/09 10:15:47;;;;;;;40.37;22.37;;;;;;;10.29;100.00;99398.94;5111604;28;20754;-60
2022/12/09 10:18:20;;;;;;;41.50;22.33;;;;;;;10.25;100.00;99390.44;5111383;28;20209;-55
2022/12/09 10:20:47;;;;;;;38.77;22.77;;;;;;;10.28;100.00;99381.69;5111213;28;20234;-54
2022/12/09 10:23:16;;;;;;;46.80;23.97;;;;;;;10.40;100.00;99400.34;5111302;28;20213;-55
2022/12/09 10:25:47;;;;;;;44.73;25.00;;;;;;;10.44;100.00;99383.78;5111937;28;20194;-55
2022/12/09 10:28:21;;;;;;;57.47;29.93;;;;;;;10.44;100.00;99377.75;5111119;28;20209;-56
2022/12/09 10:30:49;;;;;;;45.57;25.60;;;;;;;10.45;100.00;99364.72;5111393;28;20191;-54
2022/12/09 10:33:20;;;;;;;53.03;28.43;;;;;;;10.47;100.00;99362.09;5111141;28;20209;-60
2022/12/09 10:35:47;;;;;;;52.90;27.43;;;;;;;10.42;100.00;99363.97;5111142;28;20197;-56
2022/12/09 10:38:16;;;;;;;52.30;29.03;;;;;;;10.26;100.00;99344.59;5111033;28;20199;-62
2022/12/09 10:40:56;;;;;;;55.10;30.60;;;;;;;10.31;100.00;99351.31;5110879;28;20218;-56
2022/12/09 10:43:37;;;;;;;55.03;31.57;;;;;;;10.28;100.00;99341.03;5111350;28;20650;-61
2022/12/09 10:46:08;;;;;;;69.77;35.67;;;;;;;10.18;100.00;99337.88;5110965;28;20208;-61
2022/12/09 10:48:40;;;;;;;66.73;36.23;;;;;;;10.22;100.00;99351.59;5111016;28;20589;-61
2022/12/09 10:51:13;;;;;;;65.80;35.83;;;;;;;10.14;100.00;99333.66;5110834;28;20205;-62
2022/12/09 10:53:45;;;;;;;69.83;36.17;;;;;;;10.22;100.00;99328.25;5110960;28;20296;-61
2022/12/09 10:56:19;;;;;;;72.93;36.87;;;;;;;10.26;100.00;99323.84;5110360;28;20198;-56
2022/12/09 10:58:46;;;;;;;85.40;41.23;;;;;;;10.26;100.00;99322.09;5110702;28;20230;-61
2022/12/09 11:01:15;;;;;;;92.47;46.17;;;;;;;10.23;100.00;99316.16;5110659;28;20609;-56
2022/12/09 11:03:48;;;;;;;94.83;46.47;;;;;;;10.18;100.00;99303.31;5110526;28;20636;-62
2022/12/09 11:06:22;;;;;;;93.47;44.00;;;;;;;10.21;100.00;99316.19;5110552;28;20600;-62
2022/12/09 11:08:52;;;;;;;88.60;44.23;;;;;;;10.22;100.00;99306.66;5110744;28;20199;-62
2022/12/09 11:11:19;;;;;;;83.43;38.63;;;;;;;10.24;100.00;99313.50;5110610;28;20186;-62
2022/12/09 11:13:47;;;;;;;70.23;38.97;;;;;;;10.26;100.00;99303.09;5110077;28;20198;-62
2022/12/09 11:16:14;;;;;;;72.20;39.27;;;;;;;10.27;100.00;99295.22;5110236;28;20226;-61
2022/12/09 11:18:46;;;;;;;75.43;34.50;;;;;;;10.27;100.00;99303.03;5103417;28;20202;-56
2022/12/09 11:21:32;;;;;;;71.60;37.07;;;;;;;10.14;100.00;99307.72;5092127;28;20238;-56
2022/12/09 11:23:59;;;;;;;61.90;33.73;;;;;;;10.14;100.00;99319.84;5089332;28;20206;-55
2022/12/09 11:26:33;;;;;;;64.63;31.40;;;;;;;10.07;100.00;99303.59;5089623;28;20211;-57